Time;durP1;ratioP1;P1;durP2;ratioP2;P2;SDS_P1;SDS_P2;PMS_P1;PMS_P2;Temp;Humidity;BMP_temperature;BMP_pressure;BME280_temperature;BME280_humidity;BME280_pressure;Samples;Min_cycle;Max_cycle;Signal;HPM_P1;HPM_P2
2022/04/08 00:01:35;;;;;;;6.72;3.63;;;;;;;;;;5054520;28;20080;-74
2022/04/08 00:04:01;;;;;;;5.70;3.53;;;;;;;;;;5054580;28;20029;-74
2022/04/08 00:06:28;;;;;;;5.45;2.92;;;;;;;;;;5054266;28;20029;-74
2022/04/08 00:08:54;;;;;;;3.67;2.63;;;;;;;;;;5054404;28;20039;-75
2022/04/08 00:11:20;;;;;;;3.22;2.63;;;;;;;;;;5054068;28;20071;-74
2022/04/08 00:13:51;;;;;;;4.80;2.75;;;;;;;;;;5054425;28;20021;-75
2022/04/08 00:16:17;;;;;;;2.95;2.00;;;;;;;;;;5053989;28;20040;-74
2022/04/08 00:18:45;;;;;;;3.00;1.60;;;;;;;;;;5054540;28;20087;-74
2022/04/08 00:21:11;;;;;;;2.10;1.38;;;;;;;;;;5053946;28;20472;-75
2022/04/08 00:23:37;;;;;;;2.67;1.60;;;;;;;;;;5054380;28;20031;-75
2022/04/08 00:26:03;;;;;;;2.67;1.45;;;;;;;;;;5054451;28;20039;-74
2022/04/08 00:28:30;;;;;;;4.00;1.40;;;;;;;;;;5053819;28;20037;-74
2022/04/08 00:30:57;;;;;;;2.45;1.73;;;;;;;;;;5054103;28;20028;-74
2022/04/08 00:33:23;;;;;;;3.08;2.30;;;;;;;;;;5053667;28;20036;-74
2022/04/08 00:35:49;;;;;;;2.72;2.20;;;;;;;;;;5054083;28;20033;-74
2022/04/08 00:38:15;;;;;;;3.83;1.80;;;;;;;;;;5053662;28;20082;-75
2022/04/08 00:40:41;;;;;;;3.60;1.95;;;;;;;;;;5052560;28;20025;-74
2022/04/08 00:43:14;;;;;;;3.72;3.10;;;;;;;;;;5053823;28;20029;-74
2022/04/08 00:45:40;;;;;;;4.00;2.30;;;;;;;;;;5053848;28;20451;-74
2022/04/08 00:48:07;;;;;;;4.47;2.60;;;;;;;;;;5053673;28;20468;-74
2022/04/08 00:50:41;;;;;;;4.18;1.90;;;;;;;;;;5053620;28;20482;-75
2022/04/08 00:53:07;;;;;;;3.30;2.10;;;;;;;;;;5053553;28;20468;-74
2022/04/08 00:55:34;;;;;;;4.68;2.80;;;;;;;;;;5053513;28;20469;-74
2022/04/08 00:58:02;;;;;;;4.70;2.63;;;;;;;;;;5053445;28;20047;-74
2022/04/08 01:00:32;;;;;;;4.22;2.92;;;;;;;;;;5053482;28;20033;-74
2022/04/08 01:02:58;;;;;;;5.10;3.33;;;;;;;;;;5052215;28;20052;-75
2022/04/08 01:05:24;;;;;;;4.80;3.13;;;;;;;;;;5052016;28;20468;-74
2022/04/08 01:07:50;;;;;;;3.22;2.70;;;;;;;;;;5053360;28;20032;-74
2022/04/08 01:10:17;;;;;;;4.53;3.40;;;;;;;;;;5052859;28;20074;-74
2022/04/08 01:12:43;;;;;;;4.03;2.45;;;;;;;;;;5053357;28;20040;-74
2022/04/08 01:15:09;;;;;;;3.90;2.50;;;;;;;;;;5052843;28;20040;-74
2022/04/08 01:17:36;;;;;;;3.78;2.35;;;;;;;;;;5053149;28;20029;-74
2022/04/08 01:20:02;;;;;;;3.97;1.95;;;;;;;;;;5053081;28;20064;-74
2022/04/08 01:22:28;;;;;;;3.05;1.92;;;;;;;;;;5052782;28;20037;-74
2022/04/08 01:25:01;;;;;;;3.75;1.60;;;;;;;;;;5053027;28;20551;-74
2022/04/08 01:27:28;;;;;;;2.47;1.70;;;;;;;;;;5052755;28;20423;-74
2022/04/08 01:29:54;;;;;;;5.80;2.67;;;;;;;;;;5051505;28;20388;-74
2022/04/08 01:32:20;;;;;;;3.92;2.55;;;;;;;;;;5052540;28;20036;-74
2022/04/08 01:34:49;;;;;;;3.30;2.78;;;;;;;;;;5052771;28;20072;-75
2022/04/08 01:37:15;;;;;;;4.30;3.72;;;;;;;;;;5052391;28;20032;-74
2022/04/08 01:39:41;;;;;;;7.20;5.78;;;;;;;;;;5052566;28;20025;-73
2022/04/08 01:42:08;;;;;;;6.20;3.92;;;;;;;;;;5052424;28;20028;-74
2022/04/08 01:44:35;;;;;;;7.35;4.88;;;;;;;;;;5051999;28;20392;-74
2022/04/08 01:47:01;;;;;;;5.55;4.80;;;;;;;;;;5052538;28;20033;-72
2022/04/08 01:49:27;;;;;;;5.97;4.13;;;;;;;;;;5052072;28;20048;-73
2022/04/08 01:51:53;;;;;;;5.75;4.63;;;;;;;;;;5050990;28;20060;-74
2022/04/08 01:54:20;;;;;;;7.60;6.15;;;;;;;;;;5052040;28;20028;-74
2022/04/08 01:56:46;;;;;;;9.93;6.95;;;;;;;;;;5051112;28;20029;-74
2022/04/08 01:59:12;;;;;;;6.88;4.97;;;;;;;;;;5052014;28;20559;-74
2022/04/08 02:01:38;;;;;;;5.85;4.25;;;;;;;;;;5052173;28;20384;-73
2022/04/08 02:04:04;;;;;;;10.45;6.00;;;;;;;;;;5052316;28;20032;-74
2022/04/08 02:06:35;;;;;;;6.40;4.43;;;;;;;;;;5051783;28;20029;-73
2022/04/08 02:09:01;;;;;;;7.38;5.68;;;;;;;;;;5052220;28;20535;-74
2022/04/08 02:11:28;;;;;;;8.23;6.13;;;;;;;;;;5050669;28;20430;-74
2022/04/08 02:13:54;;;;;;;7.38;6.00;;;;;;;;;;5052219;28;20029;-73
2022/04/08 02:16:20;;;;;;;7.70;5.22;;;;;;;;;;5051702;28;20025;-74
2022/04/08 02:18:46;;;;;;;7.88;5.00;;;;;;;;;;5051926;28;20472;-72
2022/04/08 02:21:18;;;;;;;7.97;4.80;;;;;;;;;;5051803;28;20037;-73
2022/04/08 02:23:45;;;;;;;6.25;4.05;;;;;;;;;;5052192;28;20071;-72
2022/04/08 02:26:13;;;;;;;21.38;14.40;;;;;;;;;;5051761;28;20067;-72
2022/04/08 02:28:39;;;;;;;20.02;11.38;;;;;;;;;;5051965;28;20116;-72
2022/04/08 02:31:05;;;;;;;10.88;5.75;;;;;;;;;;5050703;28;20622;-74
2022/04/08 02:33:32;;;;;;;9.82;5.65;;;;;;;;;;5051434;28;20534;-74
2022/04/08 02:35:58;;;;;;;12.20;9.43;;;;;;;;;;5051823;28;20104;-74
2022/04/08 02:38:24;;;;;;;9.52;7.35;;;;;;;;;;5050212;28;20029;-73
2022/04/08 02:40:50;;;;;;;6.63;4.30;;;;;;;;;;5051958;28;20035;-73
2022/04/08 02:43:16;;;;;;;5.53;3.92;;;;;;;;;;5051679;28;20100;-73
2022/04/08 02:45:42;;;;;;;4.53;3.40;;;;;;;;;;5051694;28;20463;-74
2022/04/08 02:48:09;;;;;;;5.32;4.15;;;;;;;;;;5051653;28;20029;-72
2022/04/08 02:50:35;;;;;;;5.40;4.20;;;;;;;;;;5051383;28;20468;-73
2022/04/08 02:53:01;;;;;;;6.55;4.32;;;;;;;;;;5051667;28;20602;-72
2022/04/08 02:55:28;;;;;;;6.90;4.40;;;;;;;;;;5051755;28;20021;-73
2022/04/08 02:57:54;;;;;;;4.97;2.97;;;;;;;;;;5055598;28;20064;-73
2022/04/08 03:00:20;;;;;;;5.57;3.00;;;;;;;;;;5055646;28;20445;-73
2022/04/08 03:02:47;;;;;;;5.20;2.95;;;;;;;;;;5055556;28;20059;-73
2022/04/08 03:05:14;;;;;;;7.50;4.38;;;;;;;;;;5055708;28;20025;-71
2022/04/08 03:07:41;;;;;;;3.45;2.30;;;;;;;;;;5055244;28;20028;-74
2022/04/08 03:10:08;;;;;;;3.53;2.42;;;;;;;;;;5055814;28;20094;-73
2022/04/08 03:12:34;;;;;;;5.65;2.55;;;;;;;;;;5055318;28;20025;-73
2022/04/08 03:15:00;;;;;;;7.63;3.08;;;;;;;;;;5055473;28;20025;-74
2022/04/08 03:17:26;;;;;;;5.32;3.00;;;;;;;;;;5055363;28;20469;-74
2022/04/08 03:19:53;;;;;;;5.40;2.28;;;;;;;;;;5055459;28;20029;-73
2022/04/08 03:22:20;;;;;;;5.18;2.22;;;;;;;;;;5055430;28;20100;-72
2022/04/08 03:24:47;;;;;;;4.15;2.20;;;;;;;;;;5055411;28;20028;-74
2022/04/08 03:27:14;;;;;;;6.15;2.30;;;;;;;;;;5055302;28;20468;-72
2022/04/08 03:29:40;;;;;;;5.40;1.73;;;;;;;;;;5054702;28;20052;-74
2022/04/08 03:32:07;;;;;;;5.75;2.53;;;;;;;;;;5055268;28;20036;-74
2022/04/08 03:34:33;;;;;;;3.08;1.60;;;;;;;;;;5054858;28;20033;-74
2022/04/08 03:36:59;;;;;;;3.08;1.20;;;;;;;;;;5055247;28;20028;-74
2022/04/08 03:39:26;;;;;;;2.47;1.60;;;;;;;;;;5055141;28;20025;-74
2022/04/08 03:41:53;;;;;;;3.13;1.10;;;;;;;;;;5054837;28;20033;-73
2022/04/08 03:44:19;;;;;;;4.03;1.85;;;;;;;;;;5054803;28;20025;-74
2022/04/08 03:46:46;;;;;;;5.18;1.70;;;;;;;;;;5052902;28;20028;-73
2022/04/08 03:49:16;;;;;;;3.58;1.60;;;;;;;;;;5054971;28;20468;-72
2022/04/08 03:51:43;;;;;;;8.20;1.70;;;;;;;;;;5054817;28;20048;-79
2022/04/08 03:54:09;;;;;;;3.58;1.55;;;;;;;;;;5055287;28;20146;-79
2022/04/08 03:56:36;;;;;;;2.53;1.33;;;;;;;;;;5055020;28;20397;-80
2022/04/08 03:59:02;;;;;;;3.45;1.40;;;;;;;;;;5054704;28;20128;-80
2022/04/08 04:01:28;;;;;;;2.78;1.27;;;;;;;;;;5055055;28;20056;-80
2022/04/08 04:03:54;;;;;;;4.40;1.88;;;;;;;;;;5054939;28;20036;-80
2022/04/08 04:06:26;;;;;;;6.65;3.20;;;;;;;;;;5054526;28;20476;-79
2022/04/08 04:08:52;;;;;;;8.60;3.10;;;;;;;;;;5054850;28;20033;-80
2022/04/08 04:11:19;;;;;;;12.18;3.58;;;;;;;;;;5054886;28;20113;-80
2022/04/08 04:13:45;;;;;;;8.85;2.38;;;;;;;;;;5054672;28;20379;-80
2022/04/08 04:16:12;;;;;;;5.55;2.28;;;;;;;;;;5054816;28;20029;-80
2022/04/08 04:18:38;;;;;;;4.60;2.20;;;;;;;;;;5053195;28;20036;-80
2022/04/08 04:21:08;;;;;;;4.20;1.83;;;;;;;;;;5054696;28;20043;-80
2022/04/08 04:23:34;;;;;;;6.15;2.75;;;;;;;;;;5054501;28;20017;-80
2022/04/08 04:26:01;;;;;;;8.18;4.40;;;;;;;;;;5054666;28;20033;-80
2022/04/08 04:28:48;;;;;;;9.10;6.15;;;;;;;;;;5054405;28;20041;-80
2022/04/08 04:31:14;;;;;;;15.25;7.63;;;;;;;;;;5034643;28;20037;-79
2022/04/08 04:33:40;;;;;;;11.05;5.63;;;;;;;;;;5034290;28;20029;-80
2022/04/08 04:36:06;;;;;;;10.43;6.10;;;;;;;;;;5034622;28;20451;-82
2022/04/08 04:38:32;;;;;;;12.52;7.57;;;;;;;;;;5033680;28;20029;-82
2022/04/08 04:40:58;;;;;;;14.00;7.80;;;;;;;;;;5034916;28;20026;-82
2022/04/08 04:43:25;;;;;;;9.73;7.40;;;;;;;;;;5033679;28;20477;-81
2022/04/08 04:45:51;;;;;;;13.27;7.78;;;;;;;;;;5050214;28;20029;-82
2022/04/08 04:48:18;;;;;;;10.65;8.18;;;;;;;;;;5055492;28;20032;-82
2022/04/08 04:50:46;;;;;;;11.25;9.32;;;;;;;;;;5054903;28;20112;-82
2022/04/08 04:53:13;;;;;;;13.90;8.63;;;;;;;;;;5054468;28;20032;-82
2022/04/08 04:55:39;;;;;;;10.80;6.93;;;;;;;;;;5054430;28;20459;-82
2022/04/08 04:58:05;;;;;;;4.93;3.25;;;;;;;;;;5054511;28;20045;-83
2022/04/08 05:00:34;;;;;;;9.32;3.95;;;;;;;;;;5054014;28;20025;-82
2022/04/08 05:03:01;;;;;;;18.20;12.85;;;;;;;;;;5054608;28;20369;-82
2022/04/08 05:05:30;;;;;;;7.45;3.83;;;;;;;;;;5053906;28;20395;-82
2022/04/08 05:07:56;;;;;;;9.70;8.20;;;;;;;;;;5053838;28;20079;-82
2022/04/08 05:10:22;;;;;;;17.98;13.60;;;;;;;;;;5053666;28;20036;-82
2022/04/08 05:12:48;;;;;;;16.85;12.85;;;;;;;;;;5053829;28;20064;-82
2022/04/08 05:15:14;;;;;;;15.65;10.95;;;;;;;;;;5053715;28;20033;-82
2022/04/08 05:17:43;;;;;;;18.30;9.50;;;;;;;;;;5053026;28;20448;-82
2022/04/08 05:20:09;;;;;;;14.13;9.48;;;;;;;;;;5052624;28;20475;-82
2022/04/08 05:22:35;;;;;;;13.43;8.25;;;;;;;;;;5051977;28;20029;-82
2022/04/08 05:25:02;;;;;;;12.27;5.72;;;;;;;;;;5054431;28;20032;-82
2022/04/08 05:27:30;;;;;;;11.30;6.43;;;;;;;;;;5052465;28;20062;-82
2022/04/08 05:30:03;;;;;;;10.40;7.80;;;;;;;;;;5048798;28;20411;-78
2022/04/08 05:32:29;;;;;;;9.60;6.32;;;;;;;;;;5051442;28;20029;-78
2022/04/08 05:34:55;;;;;;;12.77;9.00;;;;;;;;;;5052472;28;20484;-79
2022/04/08 05:38:00;;;;;;;18.17;10.70;;;;;;;;;;5051620;28;20047;-81
2022/04/08 05:40:25;;;;;;;11.77;8.50;;;;;;;;;;5048877;28;20140;-80
2022/04/08 05:42:52;;;;;;;16.73;12.75;;;;;;;;;;5052247;28;20033;-80
2022/04/08 05:45:21;;;;;;;16.45;11.68;;;;;;;;;;5051484;28;20383;-80
2022/04/08 05:47:47;;;;;;;26.55;18.65;;;;;;;;;;5051402;28;20476;-79
2022/04/08 05:50:14;;;;;;;29.25;19.17;;;;;;;;;;5052141;28;20107;-80
2022/04/08 05:52:41;;;;;;;21.35;15.38;;;;;;;;;;5052922;28;20025;-79
2022/04/08 05:55:10;;;;;;;26.00;16.80;;;;;;;;;;5046751;28;20451;-79
2022/04/08 05:57:40;;;;;;;20.85;15.05;;;;;;;;;;5050954;28;20443;-80
2022/04/08 06:00:08;;;;;;;23.20;14.57;;;;;;;;;;5051153;28;20074;-79
2022/04/08 06:02:34;;;;;;;24.40;16.92;;;;;;;;;;5051075;28;20037;-79
2022/04/08 06:05:00;;;;;;;25.13;19.13;;;;;;;;;;5050875;28;20032;-80
2022/04/08 06:07:26;;;;;;;24.15;15.80;;;;;;;;;;5050095;28;20028;-82
2022/04/08 06:09:53;;;;;;;22.30;14.98;;;;;;;;;;5050710;28;20032;-81
2022/04/08 06:12:20;;;;;;;21.25;13.65;;;;;;;;;;5050744;28;20089;-80
2022/04/08 06:14:46;;;;;;;16.73;11.20;;;;;;;;;;5051390;28;20085;-81
2022/04/08 06:17:12;;;;;;;13.07;9.57;;;;;;;;;;5050799;28;20403;-81
2022/04/08 06:19:38;;;;;;;11.15;9.18;;;;;;;;;;5050769;28;20059;-82
2022/04/08 06:22:04;;;;;;;12.10;8.98;;;;;;;;;;5049496;28;20060;-79
2022/04/08 06:24:30;;;;;;;13.60;9.95;;;;;;;;;;5050624;28;20542;-79
2022/04/08 06:26:56;;;;;;;13.40;10.45;;;;;;;;;;5050482;28;20025;-79
2022/04/08 06:29:22;;;;;;;12.32;10.13;;;;;;;;;;5050049;28;20475;-78
2022/04/08 06:31:49;;;;;;;11.77;9.57;;;;;;;;;;5051036;28;20069;-79
2022/04/08 06:34:17;;;;;;;14.38;9.80;;;;;;;;;;5050339;28;20025;-79
2022/04/08 06:36:46;;;;;;;21.42;16.55;;;;;;;;;;5050670;28;20037;-79
2022/04/08 06:39:12;;;;;;;20.95;15.10;;;;;;;;;;5050143;28;20032;-78
2022/04/08 06:41:38;;;;;;;17.23;14.80;;;;;;;;;;5050188;28;20037;-79
2022/04/08 06:44:04;;;;;;;14.95;10.95;;;;;;;;;;5050846;28;20531;-80
2022/04/08 06:46:31;;;;;;;13.70;10.25;;;;;;;;;;5050712;28;20029;-79
2022/04/08 06:49:02;;;;;;;11.93;8.73;;;;;;;;;;5049786;28;20041;-79
2022/04/08 06:51:28;;;;;;;10.35;9.25;;;;;;;;;;5049283;28;20498;-79
2022/04/08 06:53:54;;;;;;;12.73;9.10;;;;;;;;;;5037264;28;20037;-78
2022/04/08 06:56:20;;;;;;;13.13;9.88;;;;;;;;;;5050192;28;20036;-78
2022/04/08 06:58:47;;;;;;;15.50;10.50;;;;;;;;;;5049889;28;20056;-79
2022/04/08 07:01:13;;;;;;;10.95;8.70;;;;;;;;;;5050623;28;20099;-79
2022/04/08 07:03:39;;;;;;;9.57;7.55;;;;;;;;;;5050311;28;20159;-79
2022/04/08 07:06:05;;;;;;;10.45;7.07;;;;;;;;;;5050363;28;20029;-80
2022/04/08 07:08:31;;;;;;;10.15;6.97;;;;;;;;;;5049735;28;20036;-80
2022/04/08 07:10:57;;;;;;;8.48;7.07;;;;;;;;;;5050033;28;20037;-80
2022/04/08 07:13:23;;;;;;;8.48;6.35;;;;;;;;;;5049625;28;20495;-79
2022/04/08 07:15:49;;;;;;;11.85;9.30;;;;;;;;;;5050470;28;20033;-79
2022/04/08 07:18:16;;;;;;;10.63;7.63;;;;;;;;;;5050716;28;20025;-79
2022/04/08 07:20:42;;;;;;;9.57;6.63;;;;;;;;;;5050654;28;20545;-79
2022/04/08 07:23:08;;;;;;;9.32;6.07;;;;;;;;;;5030687;28;20025;-77
2022/04/08 07:25:34;;;;;;;6.80;4.78;;;;;;;;;;5030196;28;20442;-80
2022/04/08 07:28:00;;;;;;;7.03;4.03;;;;;;;;;;5030306;28;20029;-81
2022/04/08 07:30:26;;;;;;;6.30;4.38;;;;;;;;;;5048921;28;20037;-80
2022/04/08 07:32:54;;;;;;;5.80;3.60;;;;;;;;;;5049455;28;20114;-81
2022/04/08 07:35:22;;;;;;;3.90;2.72;;;;;;;;;;5048669;28;20439;-79
2022/04/08 07:37:48;;;;;;;3.33;2.22;;;;;;;;;;5049765;28;20041;-81
2022/04/08 07:40:14;;;;;;;3.65;2.78;;;;;;;;;;5049882;28;20095;-80
2022/04/08 07:42:41;;;;;;;4.35;2.90;;;;;;;;;;5051486;28;20084;-79
2022/04/08 07:45:07;;;;;;;5.18;2.75;;;;;;;;;;5053297;28;20037;-81
2022/04/08 07:47:34;;;;;;;4.70;2.53;;;;;;;;;;5053264;28;20033;-81
2022/04/08 07:50:01;;;;;;;3.50;2.88;;;;;;;;;;5053375;28;20124;-79
2022/04/08 07:52:27;;;;;;;4.70;3.10;;;;;;;;;;5040545;28;20121;-81
2022/04/08 07:54:54;;;;;;;4.97;4.18;;;;;;;;;;5053535;28;20029;-83
2022/04/08 07:57:20;;;;;;;9.82;7.15;;;;;;;;;;5053710;28;20028;-80
2022/04/08 07:59:46;;;;;;;10.38;6.68;;;;;;;;;;5053385;28;20053;-80
2022/04/08 08:02:12;;;;;;;6.88;5.32;;;;;;;;;;5053919;28;20024;-82
2022/04/08 08:04:39;;;;;;;10.68;7.18;;;;;;;;;;5051731;28;20488;-83
2022/04/08 08:07:05;;;;;;;6.85;5.10;;;;;;;;;;5053169;28;20029;-80
2022/04/08 08:09:32;;;;;;;4.05;2.38;;;;;;;;;;5053475;28;20044;-76
2022/04/08 08:11:58;;;;;;;3.63;2.25;;;;;;;;;;5052225;28;20088;-75
2022/04/08 08:14:24;;;;;;;4.07;2.90;;;;;;;;;;5052946;28;20388;-77
2022/04/08 08:16:50;;;;;;;5.63;3.30;;;;;;;;;;5052787;28;20163;-78
2022/04/08 08:19:17;;;;;;;5.68;2.78;;;;;;;;;;5052828;28;20346;-79
2022/04/08 08:21:43;;;;;;;4.70;2.58;;;;;;;;;;5052524;28;20563;-79
2022/04/08 08:24:09;;;;;;;4.47;2.25;;;;;;;;;;5053101;28;20092;-81
2022/04/08 08:26:35;;;;;;;4.00;2.17;;;;;;;;;;5052442;28;20086;-79
2022/04/08 08:29:01;;;;;;;6.03;2.97;;;;;;;;;;5051828;28;20045;-80
2022/04/08 08:31:27;;;;;;;8.90;5.90;;;;;;;;;;5052790;28;20102;-80
2022/04/08 08:33:54;;;;;;;3.88;3.20;;;;;;;;;;5052194;28;20021;-80
2022/04/08 08:36:26;;;;;;;20.20;16.10;;;;;;;;;;5052693;28;20464;-84
2022/04/08 08:38:52;;;;;;;12.35;10.45;;;;;;;;;;5052384;28;20055;-82
2022/04/08 08:41:19;;;;;;;10.30;8.88;;;;;;;;;;5052156;28;20029;-81
2022/04/08 08:43:47;;;;;;;14.20;10.98;;;;;;;;;;5050064;28;20489;-83
2022/04/08 08:46:16;;;;;;;27.17;13.80;;;;;;;;;;5052542;28;20052;-81
2022/04/08 08:48:45;;;;;;;11.10;4.95;;;;;;;;;;5052583;28;20021;-81
2022/04/08 08:51:12;;;;;;;3.85;1.77;;;;;;;;;;5052007;28;20059;-84
2022/04/08 08:53:38;;;;;;;5.30;2.25;;;;;;;;;;5052481;28;20033;-82
2022/04/08 08:56:06;;;;;;;13.40;6.00;;;;;;;;;;5030527;28;20036;-82
2022/04/08 08:58:38;;;;;;;7.53;3.67;;;;;;;;;;5039932;28;20147;-82
2022/04/08 09:01:16;;;;;;;9.30;4.93;;;;;;;;;;5052213;28;20032;-82
2022/04/08 09:03:46;;;;;;;6.45;4.32;;;;;;;;;;5050411;28;20036;-81
2022/04/08 09:06:12;;;;;;;4.22;2.97;;;;;;;;;;5049780;28;20035;-84
2022/04/08 09:11:57;;;;;;;4.88;2.70;;;;;;;;;;5022226;28;20033;-83
2022/04/08 09:14:40;;;;;;;;;;;;;;;;;;;;;
2022/04/08 09:17:11;;;;;;;8.27;4.18;;;;;;;;;;5049550;28;20033;-84
2022/04/08 09:19:40;;;;;;;5.80;2.30;;;;;;;;;;5051065;28;20029;-83
2022/04/08 09:22:06;;;;;;;5.18;1.70;;;;;;;;;;5048861;28;20480;-83
2022/04/08 09:24:32;;;;;;;2.25;1.27;;;;;;;;;;5051184;28;20029;-80
2022/04/08 09:27:01;;;;;;;10.00;3.55;;;;;;;;;;5051002;28;20047;-82
2022/04/08 09:29:27;;;;;;;1.98;1.30;;;;;;;;;;5051173;28;20029;-81
2022/04/08 09:31:57;;;;;;;5.30;1.70;;;;;;;;;;5050185;28;20498;-82
2022/04/08 09:34:30;;;;;;;2.90;1.88;;;;;;;;;;5051557;28;20567;-81
2022/04/08 09:36:57;;;;;;;6.53;2.40;;;;;;;;;;5050761;28;20506;-82
2022/04/08 09:39:23;;;;;;;4.93;2.15;;;;;;;;;;5051159;28;20033;-80
2022/04/08 09:41:50;;;;;;;16.73;5.55;;;;;;;;;;5051058;28;20032;-80
2022/04/08 09:44:25;;;;;;;3.85;1.65;;;;;;;;;;5050166;28;20455;-80
2022/04/08 09:46:51;;;;;;;4.55;1.35;;;;;;;;;;5050892;28;20049;-83
2022/04/08 09:49:17;;;;;;;8.65;2.95;;;;;;;;;;5051035;28;20036;-82
2022/04/08 09:51:44;;;;;;;12.77;5.25;;;;;;;;;;5050829;28;20419;-84
2022/04/08 09:54:12;;;;;;;228.80;78.20;;;;;;;;;;5050482;28;20056;-76
2022/04/08 09:56:38;;;;;;;272.17;91.55;;;;;;;;;;5044799;28;20028;-78
2022/04/08 09:59:12;;;;;;;187.75;64.32;;;;;;;;;;5047771;28;20045;-77
2022/04/08 10:01:47;;;;;;;87.45;30.40;;;;;;;;;;5048389;28;20056;-80
2022/04/08 10:04:14;;;;;;;62.95;22.88;;;;;;;;;;5047980;28;20029;-81
2022/04/08 10:06:41;;;;;;;79.47;25.75;;;;;;;;;;5049904;28;20021;-78
2022/04/08 10:09:08;;;;;;;60.55;21.67;;;;;;;;;;5049299;28;20119;-78
2022/04/08 10:11:59;;;;;;;27.75;10.50;;;;;;;;;;5050032;28;20033;-78
2022/04/08 10:14:28;;;;;;;13.13;5.15;;;;;;;;;;5047203;28;20029;-80
2022/04/08 10:16:56;;;;;;;11.65;3.70;;;;;;;;;;5048547;28;20039;-83
2022/04/08 10:19:23;;;;;;;5.90;1.95;;;;;;;;;;5049694;28;20357;-78
2022/04/08 10:21:51;;;;;;;4.13;1.70;;;;;;;;;;5048322;28;20041;-79
2022/04/08 10:24:22;;;;;;;4.35;1.58;;;;;;;;;;5046594;28;20116;-77
2022/04/08 10:27:09;;;;;;;6.18;2.95;;;;;;;;;;5049476;28;20036;-79
2022/04/08 10:29:35;;;;;;;10.00;5.68;;;;;;;;;;5040851;28;20053;-84
2022/04/08 10:32:02;;;;;;;11.25;4.18;;;;;;;;;;5050637;28;20028;-81
2022/04/08 10:34:32;;;;;;;9.25;4.22;;;;;;;;;;5049778;28;20539;-81
2022/04/08 10:37:02;;;;;;;4.88;2.15;;;;;;;;;;5050231;28;20041;-83
2022/04/08 10:39:28;;;;;;;4.97;1.65;;;;;;;;;;5049787;28;20029;-78
2022/04/08 10:41:58;;;;;;;3.10;1.70;;;;;;;;;;5044360;28;20067;-77
2022/04/08 10:44:31;;;;;;;2.13;1.35;;;;;;;;;;5049357;28;20365;-82
2022/04/08 10:46:58;;;;;;;3.70;1.25;;;;;;;;;;5049400;28;20025;-80
2022/04/08 10:49:24;;;;;;;2.42;1.10;;;;;;;;;;5046810;28;20048;-81
2022/04/08 10:51:50;;;;;;;4.72;2.30;;;;;;;;;;5046371;28;20033;-80
2022/04/08 10:54:17;;;;;;;7.35;3.60;;;;;;;;;;5048628;28;20057;-81
2022/04/08 10:56:43;;;;;;;1.77;1.00;;;;;;;;;;5049940;28;20460;-84
2022/04/08 10:59:10;;;;;;;3.05;1.52;;;;;;;;;;5047385;28;20073;-81
2022/04/08 11:01:54;;;;;;;2.35;1.10;;;;;;;;;;5049611;28;20043;-81
2022/04/08 11:04:22;;;;;;;3.40;1.55;;;;;;;;;;5047040;28;20021;-78
2022/04/08 11:06:51;;;;;;;7.55;3.67;;;;;;;;;;5048646;28;20037;-83
2022/04/08 11:09:20;;;;;;;27.02;11.90;;;;;;;;;;5048207;28;20121;-83
2022/04/08 11:11:52;;;;;;;73.78;31.17;;;;;;;;;;5048451;28;20052;-82
2022/04/08 11:14:18;;;;;;;48.33;20.50;;;;;;;;;;5048725;28;20036;-82
2022/04/08 11:16:44;;;;;;;55.90;23.63;;;;;;;;;;5051051;28;20028;-82
2022/04/08 11:19:11;;;;;;;39.60;17.58;;;;;;;;;;5054399;28;20032;-83
2022/04/08 11:21:38;;;;;;;81.85;33.92;;;;;;;;;;5054168;28;20033;-81
2022/04/08 11:24:08;;;;;;;47.72;19.00;;;;;;;;;;5053661;28;20047;-84
2022/04/08 11:26:52;;;;;;;73.20;28.13;;;;;;;;;;5053213;28;20118;-83
2022/04/08 11:35:41;;;;;;;;;;;;;;;;;;;;;
2022/04/08 11:38:13;;;;;;;9.48;4.65;;;;;;;;;;4969798;28;20030;-82
2022/04/08 11:41:07;;;;;;;;;;;;;;;;;;;;;
2022/04/08 11:43:36;;;;;;;3.10;0.73;;;;;;;;;;4973565;28;20781;-83
2022/04/08 11:46:28;;;;;;;2.85;1.08;;;;;;;;;;4956917;28;20141;-83
2022/04/08 11:49:03;;;;;;;2.55;1.30;;;;;;;;;;4956675;28;20043;-83
2022/04/08 11:51:29;;;;;;;2.70;1.45;;;;;;;;;;5052696;28;20025;-83
2022/04/08 11:54:00;;;;;;;4.03;1.55;;;;;;;;;;5052749;28;20032;-82
2022/04/08 11:59:48;;;;;;;2.03;1.08;;;;;;;;;;5044960;28;20053;-82
2022/04/08 12:02:14;;;;;;;3.20;1.70;;;;;;;;;;5054850;28;20060;-82
2022/04/08 12:04:41;;;;;;;2.30;1.33;;;;;;;;;;5053567;28;20056;-82
2022/04/08 12:07:20;;;;;;;1.83;0.75;;;;;;;;;;5074502;28;20029;-82
2022/04/08 12:09:46;;;;;;;16.50;9.07;;;;;;;;;;5074553;28;20032;-83
2022/04/08 12:12:12;;;;;;;18.10;9.65;;;;;;;;;;5053404;28;20032;-79
2022/04/08 12:14:42;;;;;;;9.02;4.55;;;;;;;;;;5054025;28;20032;-82
2022/04/08 12:17:08;;;;;;;12.68;5.22;;;;;;;;;;5052017;28;20021;-83
2022/04/08 12:19:40;;;;;;;9.75;4.65;;;;;;;;;;5052503;28;20029;-81
2022/04/08 12:22:26;;;;;;;7.15;2.67;;;;;;;;;;5053966;28;20100;-81
2022/04/08 12:24:53;;;;;;;8.60;3.95;;;;;;;;;;5053270;28;20039;-83
2022/04/08 12:27:25;;;;;;;5.65;2.33;;;;;;;;;;5052919;28;20024;-85
2022/04/08 12:30:09;;;;;;;5.03;2.75;;;;;;;;;;5054350;28;20052;-81
2022/04/08 12:35:33;;;;;;;4.95;4.40;;;;;;;;;;5053718;28;20044;-85
2022/04/08 12:37:59;;;;;;;3.42;3.03;;;;;;;;;;5053697;28;20018;-83
2022/04/08 12:40:25;;;;;;;4.90;2.85;;;;;;;;;;5053780;28;20023;-81
2022/04/08 12:42:52;;;;;;;4.93;1.77;;;;;;;;;;5053338;28;20021;-81
2022/04/08 12:45:38;;;;;;;6.18;3.28;;;;;;;;;;5053847;28;20021;-82
2022/04/08 12:48:05;;;;;;;3.67;2.38;;;;;;;;;;5052418;28;20040;-82
2022/04/08 12:50:32;;;;;;;4.97;3.83;;;;;;;;;;5054109;28;20033;-81
2022/04/08 12:52:58;;;;;;;5.20;2.85;;;;;;;;;;5053499;28;20448;-81
2022/04/08 12:55:25;;;;;;;6.25;4.10;;;;;;;;;;5053668;28;20021;-80
2022/04/08 12:57:57;;;;;;;8.05;3.90;;;;;;;;;;5053865;28;20049;-82
2022/04/08 13:00:24;;;;;;;5.78;3.05;;;;;;;;;;5053823;28;20469;-82
2022/04/08 13:02:52;;;;;;;2.92;1.80;;;;;;;;;;5052828;28;20029;-80
2022/04/08 13:05:33;;;;;;;3.88;2.42;;;;;;;;;;5053233;28;20056;-83
2022/04/08 13:07:59;;;;;;;3.67;3.10;;;;;;;;;;5054145;28;20025;-81
2022/04/08 13:10:25;;;;;;;9.70;7.28;;;;;;;;;;5054634;28;20086;-83
2022/04/08 13:12:51;;;;;;;2.65;1.50;;;;;;;;;;5053664;28;20025;-82
2022/04/08 13:15:17;;;;;;;2.22;0.82;;;;;;;;;;5047565;28;20025;-80
2022/04/08 13:17:43;;;;;;;0.90;0.50;;;;;;;;;;5057089;28;20052;-81
2022/04/08 13:20:10;;;;;;;1.65;0.65;;;;;;;;;;5054669;28;20024;-80
2022/04/08 13:22:36;;;;;;;1.65;0.73;;;;;;;;;;5054055;28;20487;-81
2022/04/08 13:25:02;;;;;;;1.20;0.45;;;;;;;;;;5053880;28;20017;-82
2022/04/08 13:27:28;;;;;;;2.25;0.80;;;;;;;;;;5053779;28;20024;-80
2022/04/08 13:29:55;;;;;;;2.55;1.20;;;;;;;;;;5052314;28;20036;-80
2022/04/08 13:32:22;;;;;;;1.73;0.50;;;;;;;;;;5053893;28;20021;-80
2022/04/08 13:34:48;;;;;;;2.28;0.80;;;;;;;;;;5054001;28;20100;-81
2022/04/08 13:37:14;;;;;;;1.80;1.15;;;;;;;;;;5052866;28;20031;-82
2022/04/08 13:39:42;;;;;;;1.52;0.80;;;;;;;;;;5051856;28;20022;-81
2022/04/08 13:42:09;;;;;;;3.55;0.93;;;;;;;;;;5051652;28;20020;-80
2022/04/08 13:44:37;;;;;;;2.80;0.85;;;;;;;;;;5052340;28;20024;-81
2022/04/08 13:47:04;;;;;;;4.00;1.17;;;;;;;;;;5052582;28;20025;-81
2022/04/08 13:49:32;;;;;;;2.70;0.80;;;;;;;;;;5051988;28;20507;-78
2022/04/08 13:51:58;;;;;;;2.08;0.73;;;;;;;;;;5052474;28;20021;-78
2022/04/08 13:54:25;;;;;;;1.63;0.68;;;;;;;;;;5052321;28;20037;-81
2022/04/08 13:56:51;;;;;;;1.65;0.88;;;;;;;;;;5052340;28;20103;-80
2022/04/08 13:59:17;;;;;;;2.03;0.98;;;;;;;;;;5052111;28;20056;-80
2022/04/08 14:01:43;;;;;;;3.80;1.05;;;;;;;;;;5052351;28;20028;-80
2022/04/08 14:04:10;;;;;;;2.05;0.80;;;;;;;;;;5052301;28;20507;-80
2022/04/08 14:06:37;;;;;;;1.85;0.80;;;;;;;;;;5052707;28;20028;-81
2022/04/08 14:09:04;;;;;;;1.80;0.50;;;;;;;;;;5052095;28;20545;-81
2022/04/08 14:11:31;;;;;;;1.95;0.90;;;;;;;;;;5051844;28;20496;-80
2022/04/08 14:13:57;;;;;;;2.03;0.60;;;;;;;;;;5051949;28;20029;-80
2022/04/08 14:16:23;;;;;;;3.15;1.38;;;;;;;;;;5051303;28;20021;-81
2022/04/08 14:18:50;;;;;;;2.00;0.70;;;;;;;;;;5051145;28;20025;-79
2022/04/08 14:21:16;;;;;;;2.28;1.20;;;;;;;;;;5052705;28;20476;-81
2022/04/08 14:23:44;;;;;;;3.38;0.95;;;;;;;;;;5053393;28;20028;-81
2022/04/08 14:26:11;;;;;;;1.25;0.60;;;;;;;;;;5053234;28;20112;-81
2022/04/08 14:28:37;;;;;;;1.33;0.88;;;;;;;;;;5053371;28;20070;-81
2022/04/08 14:31:03;;;;;;;1.48;0.60;;;;;;;;;;5053339;28;20494;-81
2022/04/08 14:33:30;;;;;;;3.83;1.00;;;;;;;;;;5053108;28;20017;-78
2022/04/08 14:35:59;;;;;;;2.45;0.90;;;;;;;;;;5052580;28;20021;-78
2022/04/08 14:38:26;;;;;;;2.05;0.90;;;;;;;;;;5053225;28;20468;-77
2022/04/08 14:40:52;;;;;;;1.75;0.60;;;;;;;;;;5053349;28;20031;-80
2022/04/08 14:43:18;;;;;;;3.30;0.90;;;;;;;;;;5053342;28;20023;-80
2022/04/08 14:45:45;;;;;;;3.42;1.02;;;;;;;;;;5053294;28;20155;-80
2022/04/08 14:48:11;;;;;;;1.45;0.82;;;;;;;;;;5052985;28;20025;-80
2022/04/08 14:50:38;;;;;;;2.00;0.80;;;;;;;;;;5054378;28;20372;-81
2022/04/08 14:53:04;;;;;;;1.90;0.90;;;;;;;;;;5059767;28;20063;-80
2022/04/08 14:55:30;;;;;;;2.08;1.10;;;;;;;;;;5059522;28;20372;-80
2022/04/08 14:57:59;;;;;;;3.20;1.65;;;;;;;;;;5042511;28;20081;-80
2022/04/08 15:00:26;;;;;;;1.90;1.00;;;;;;;;;;5058400;28;20029;-79